sensor_id;sensor_type;location;lat;lon;timestamp;P1;durP1;ratioP1;P2;durP2;ratioP2
44476;SDS011;30180;44.788;10.366;2023-02-25T00:01:17;6.07;;;2.75;;
44476;SDS011;30180;44.788;10.366;2023-02-25T00:06:19;4.20;;;2.22;;
44476;SDS011;30180;44.788;10.366;2023-02-25T00:08:49;3.70;;;2.20;;
44476;SDS011;30180;44.788;10.366;2023-02-25T00:11:21;4.88;;;2.30;;
44476;SDS011;30180;44.788;10.366;2023-02-25T00:13:51;4.65;;;2.55;;
44476;SDS011;30180;44.788;10.366;2023-02-25T00:16:21;3.35;;;2.30;;
44476;SDS011;30180;44.788;10.366;2023-02-25T00:18:54;4.80;;;2.40;;
44476;SDS011;30180;44.788;10.366;2023-02-25T00:21:24;4.38;;;2.58;;
44476;SDS011;30180;44.788;10.366;2023-02-25T00:23:55;4.40;;;2.33;;
44476;SDS011;30180;44.788;10.366;2023-02-25T00:26:42;5.15;;;2.50;;
44476;SDS011;30180;44.788;10.366;2023-02-25T00:29:10;4.85;;;2.50;;
44476;SDS011;30180;44.788;10.366;2023-02-25T00:31:38;3.85;;;2.25;;
44476;SDS011;30180;44.788;10.366;2023-02-25T00:34:07;4.70;;;2.50;;
44476;SDS011;30180;44.788;10.366;2023-02-25T00:36:36;4.60;;;2.67;;
44476;SDS011;30180;44.788;10.366;2023-02-25T00:39:05;4.10;;;2.42;;
44476;SDS011;30180;44.788;10.366;2023-02-25T00:41:34;3.33;;;2.40;;
44476;SDS011;30180;44.788;10.366;2023-02-25T00:44:04;4.45;;;2.42;;
44476;SDS011;30180;44.788;10.366;2023-02-25T00:46:33;3.83;;;2.58;;
44476;SDS011;30180;44.788;10.366;2023-02-25T00:49:02;4.20;;;2.50;;
44476;SDS011;30180;44.788;10.366;2023-02-25T00:51:31;6.00;;;2.40;;
44476;SDS011;30180;44.788;10.366;2023-02-25T00:54:00;4.45;;;2.40;;
44476;SDS011;30180;44.788;10.366;2023-02-25T00:56:28;4.00;;;2.30;;
44476;SDS011;30180;44.788;10.366;2023-02-25T00:58:58;4.22;;;2.60;;
44476;SDS011;30180;44.788;10.366;2023-02-25T01:01:29;4.30;;;2.57;;
44476;SDS011;30180;44.788;10.366;2023-02-25T01:03:59;4.18;;;2.55;;
44476;SDS011;30180;44.788;10.366;2023-02-25T01:06:28;4.20;;;2.25;;
44476;SDS011;30180;44.788;10.366;2023-02-25T01:08:58;4.57;;;2.55;;
44476;SDS011;30180;44.788;10.366;2023-02-25T01:11:27;4.85;;;2.60;;
44476;SDS011;30180;44.788;10.366;2023-02-25T01:13:57;4.28;;;2.30;;
44476;SDS011;30180;44.788;10.366;2023-02-25T01:16:27;4.53;;;2.67;;
44476;SDS011;30180;44.788;10.366;2023-02-25T01:19:02;4.05;;;2.58;;
44476;SDS011;30180;44.788;10.366;2023-02-25T01:21:33;5.75;;;2.70;;
44476;SDS011;30180;44.788;10.366;2023-02-25T01:24:03;4.20;;;2.63;;
44476;SDS011;30180;44.788;10.366;2023-02-25T01:26:34;4.30;;;2.60;;
44476;SDS011;30180;44.788;10.366;2023-02-25T01:29:05;5.47;;;2.85;;
44476;SDS011;30180;44.788;10.366;2023-02-25T01:31:35;4.10;;;2.30;;
44476;SDS011;30180;44.788;10.366;2023-02-25T01:34:05;5.07;;;2.90;;
44476;SDS011;30180;44.788;10.366;2023-02-25T01:36:34;4.05;;;2.58;;
44476;SDS011;30180;44.788;10.366;2023-02-25T01:39:02;4.47;;;2.78;;
44476;SDS011;30180;44.788;10.366;2023-02-25T01:41:32;6.47;;;2.70;;
44476;SDS011;30180;44.788;10.366;2023-02-25T01:44:12;5.28;;;2.65;;
44476;SDS011;30180;44.788;10.366;2023-02-25T01:46:43;4.97;;;2.80;;
44476;SDS011;30180;44.788;10.366;2023-02-25T01:49:14;4.53;;;3.00;;
44476;SDS011;30180;44.788;10.366;2023-02-25T01:51:44;4.40;;;2.35;;
44476;SDS011;30180;44.788;10.366;2023-02-25T01:54:15;4.32;;;2.60;;
44476;SDS011;30180;44.788;10.366;2023-02-25T01:56:47;4.63;;;2.30;;
44476;SDS011;30180;44.788;10.366;2023-02-25T01:59:17;5.05;;;3.03;;
44476;SDS011;30180;44.788;10.366;2023-02-25T02:01:51;4.28;;;3.00;;
44476;SDS011;30180;44.788;10.366;2023-02-25T02:04:19;4.20;;;2.40;;
44476;SDS011;30180;44.788;10.366;2023-02-25T02:06:50;4.00;;;2.70;;
44476;SDS011;30180;44.788;10.366;2023-02-25T02:09:20;4.30;;;2.50;;
44476;SDS011;30180;44.788;10.366;2023-02-25T02:11:50;4.47;;;2.78;;
44476;SDS011;30180;44.788;10.366;2023-02-25T02:14:19;4.70;;;2.53;;
44476;SDS011;30180;44.788;10.366;2023-02-25T02:19:46;5.03;;;3.05;;
44476;SDS011;30180;44.788;10.366;2023-02-25T02:22:24;4.68;;;2.83;;
44476;SDS011;30180;44.788;10.366;2023-02-25T02:28:03;4.75;;;2.63;;
44476;SDS011;30180;44.788;10.366;2023-02-25T02:30:54;4.18;;;2.70;;
44476;SDS011;30180;44.788;10.366;2023-02-25T02:33:51;5.35;;;3.00;;
44476;SDS011;30180;44.788;10.366;2023-02-25T02:36:27;4.35;;;2.88;;
44476;SDS011;30180;44.788;10.366;2023-02-25T02:39:03;5.05;;;2.90;;
44476;SDS011;30180;44.788;10.366;2023-02-25T02:41:39;4.97;;;2.70;;
44476;SDS011;30180;44.788;10.366;2023-02-25T02:44:15;4.88;;;2.83;;
44476;SDS011;30180;44.788;10.366;2023-02-25T02:46:46;3.80;;;2.40;;
44476;SDS011;30180;44.788;10.366;2023-02-25T02:49:20;4.82;;;2.72;;
44476;SDS011;30180;44.788;10.366;2023-02-25T02:51:54;5.65;;;2.85;;
44476;SDS011;30180;44.788;10.366;2023-02-25T02:54:28;4.78;;;2.95;;
44476;SDS011;30180;44.788;10.366;2023-02-25T02:57:01;5.25;;;3.30;;
44476;SDS011;30180;44.788;10.366;2023-02-25T02:59:32;5.60;;;2.80;;
44476;SDS011;30180;44.788;10.366;2023-02-25T03:02:09;5.78;;;3.15;;
44476;SDS011;30180;44.788;10.366;2023-02-25T03:04:43;4.68;;;2.80;;
44476;SDS011;30180;44.788;10.366;2023-02-25T03:07:15;4.93;;;2.85;;
44476;SDS011;30180;44.788;10.366;2023-02-25T03:09:45;4.80;;;3.13;;
44476;SDS011;30180;44.788;10.366;2023-02-25T03:12:16;4.25;;;3.05;;
44476;SDS011;30180;44.788;10.366;2023-02-25T03:14:44;4.78;;;2.88;;
44476;SDS011;30180;44.788;10.366;2023-02-25T03:17:13;4.82;;;3.13;;
44476;SDS011;30180;44.788;10.366;2023-02-25T03:19:48;5.35;;;3.33;;
44476;SDS011;30180;44.788;10.366;2023-02-25T03:22:21;4.55;;;3.20;;
44476;SDS011;30180;44.788;10.366;2023-02-25T03:24:54;4.80;;;2.80;;
44476;SDS011;30180;44.788;10.366;2023-02-25T03:27:28;5.88;;;3.17;;
44476;SDS011;30180;44.788;10.366;2023-02-25T03:30:02;5.28;;;3.08;;
44476;SDS011;30180;44.788;10.366;2023-02-25T03:32:38;5.22;;;3.15;;
44476;SDS011;30180;44.788;10.366;2023-02-25T03:35:11;5.70;;;3.28;;
44476;SDS011;30180;44.788;10.366;2023-02-25T03:37:41;5.47;;;2.95;;
44476;SDS011;30180;44.788;10.366;2023-02-25T03:40:12;5.07;;;2.92;;
44476;SDS011;30180;44.788;10.366;2023-02-25T03:42:43;6.05;;;3.30;;
44476;SDS011;30180;44.788;10.366;2023-02-25T03:45:15;5.63;;;3.15;;
44476;SDS011;30180;44.788;10.366;2023-02-25T03:47:44;4.75;;;2.97;;
44476;SDS011;30180;44.788;10.366;2023-02-25T03:50:14;5.13;;;3.10;;
44476;SDS011;30180;44.788;10.366;2023-02-25T03:52:47;6.15;;;3.08;;
44476;SDS011;30180;44.788;10.366;2023-02-25T03:55:16;5.70;;;3.30;;
44476;SDS011;30180;44.788;10.366;2023-02-25T03:57:46;6.68;;;3.78;;
44476;SDS011;30180;44.788;10.366;2023-02-25T04:00:17;5.47;;;3.20;;
44476;SDS011;30180;44.788;10.366;2023-02-25T04:02:48;5.43;;;3.17;;
44476;SDS011;30180;44.788;10.366;2023-02-25T04:05:19;4.82;;;3.28;;
44476;SDS011;30180;44.788;10.366;2023-02-25T04:07:50;4.70;;;2.85;;
44476;SDS011;30180;44.788;10.366;2023-02-25T04:10:18;6.40;;;3.22;;
44476;SDS011;30180;44.788;10.366;2023-02-25T04:12:47;5.70;;;3.55;;
44476;SDS011;30180;44.788;10.366;2023-02-25T04:15:17;5.20;;;3.28;;
44476;SDS011;30180;44.788;10.366;2023-02-25T04:17:46;5.47;;;3.40;;
44476;SDS011;30180;44.788;10.366;2023-02-25T04:20:15;4.75;;;2.90;;
44476;SDS011;30180;44.788;10.366;2023-02-25T04:22:47;5.22;;;3.22;;
44476;SDS011;30180;44.788;10.366;2023-02-25T04:25:16;6.15;;;3.15;;
44476;SDS011;30180;44.788;10.366;2023-02-25T04:27:44;4.50;;;2.65;;
44476;SDS011;30180;44.788;10.366;2023-02-25T04:30:12;5.53;;;2.92;;
44476;SDS011;30180;44.788;10.366;2023-02-25T04:32:41;5.00;;;3.10;;
44476;SDS011;30180;44.788;10.366;2023-02-25T04:35:10;4.60;;;2.85;;
44476;SDS011;30180;44.788;10.366;2023-02-25T04:37:39;4.32;;;2.75;;
44476;SDS011;30180;44.788;10.366;2023-02-25T04:40:11;5.07;;;3.13;;
44476;SDS011;30180;44.788;10.366;2023-02-25T04:42:42;5.30;;;2.83;;
44476;SDS011;30180;44.788;10.366;2023-02-25T04:45:11;6.70;;;2.85;;
44476;SDS011;30180;44.788;10.366;2023-02-25T04:47:40;5.28;;;2.90;;
44476;SDS011;30180;44.788;10.366;2023-02-25T04:50:09;5.25;;;3.20;;
44476;SDS011;30180;44.788;10.366;2023-02-25T04:52:39;4.90;;;2.80;;
44476;SDS011;30180;44.788;10.366;2023-02-25T04:55:07;4.07;;;2.40;;
44476;SDS011;30180;44.788;10.366;2023-02-25T04:57:37;5.88;;;2.90;;
44476;SDS011;30180;44.788;10.366;2023-02-25T05:00:08;5.10;;;2.85;;
44476;SDS011;30180;44.788;10.366;2023-02-25T05:02:44;4.88;;;3.00;;
44476;SDS011;30180;44.788;10.366;2023-02-25T05:05:13;4.32;;;2.97;;
44476;SDS011;30180;44.788;10.366;2023-02-25T05:07:42;4.38;;;2.67;;
44476;SDS011;30180;44.788;10.366;2023-02-25T05:10:11;4.60;;;2.90;;
44476;SDS011;30180;44.788;10.366;2023-02-25T05:12:42;4.30;;;2.53;;
44476;SDS011;30180;44.788;10.366;2023-02-25T05:15:10;4.45;;;2.90;;
44476;SDS011;30180;44.788;10.366;2023-02-25T05:17:38;3.92;;;2.40;;
44476;SDS011;30180;44.788;10.366;2023-02-25T05:20:07;4.13;;;2.72;;
44476;SDS011;30180;44.788;10.366;2023-02-25T05:22:38;4.40;;;2.67;;
44476;SDS011;30180;44.788;10.366;2023-02-25T05:25:08;4.32;;;2.70;;
44476;SDS011;30180;44.788;10.366;2023-02-25T05:27:37;5.15;;;2.60;;
44476;SDS011;30180;44.788;10.366;2023-02-25T05:30:07;4.68;;;2.67;;
44476;SDS011;30180;44.788;10.366;2023-02-25T05:35:05;4.60;;;2.78;;
44476;SDS011;30180;44.788;10.366;2023-02-25T05:37:35;4.32;;;2.50;;
44476;SDS011;30180;44.788;10.366;2023-02-25T05:40:04;3.53;;;2.25;;
44476;SDS011;30180;44.788;10.366;2023-02-25T05:42:34;4.95;;;2.47;;
44476;SDS011;30180;44.788;10.366;2023-02-25T05:45:04;4.00;;;2.25;;
44476;SDS011;30180;44.788;10.366;2023-02-25T05:47:34;3.92;;;2.42;;
44476;SDS011;30180;44.788;10.366;2023-02-25T05:50:03;5.70;;;2.75;;
44476;SDS011;30180;44.788;10.366;2023-02-25T05:52:32;3.88;;;2.38;;
44476;SDS011;30180;44.788;10.366;2023-02-25T05:55:00;4.93;;;2.50;;
44476;SDS011;30180;44.788;10.366;2023-02-25T05:57:28;3.67;;;2.28;;
44476;SDS011;30180;44.788;10.366;2023-02-25T05:59:57;6.20;;;2.92;;
44476;SDS011;30180;44.788;10.366;2023-02-25T06:02:28;4.88;;;2.50;;
44476;SDS011;30180;44.788;10.366;2023-02-25T06:04:58;4.40;;;2.72;;
44476;SDS011;30180;44.788;10.366;2023-02-25T06:07:28;3.75;;;2.35;;
44476;SDS011;30180;44.788;10.366;2023-02-25T06:09:57;4.45;;;2.47;;
44476;SDS011;30180;44.788;10.366;2023-02-25T06:12:27;5.78;;;2.40;;
44476;SDS011;30180;44.788;10.366;2023-02-25T06:14:57;4.72;;;2.72;;
44476;SDS011;30180;44.788;10.366;2023-02-25T06:17:25;4.32;;;2.60;;
44476;SDS011;30180;44.788;10.366;2023-02-25T06:19:55;4.95;;;2.60;;
44476;SDS011;30180;44.788;10.366;2023-02-25T06:22:23;4.35;;;2.58;;
44476;SDS011;30180;44.788;10.366;2023-02-25T06:24:51;5.70;;;2.70;;
44476;SDS011;30180;44.788;10.366;2023-02-25T06:27:19;3.45;;;2.20;;
44476;SDS011;30180;44.788;10.366;2023-02-25T06:29:48;3.78;;;2.28;;
44476;SDS011;30180;44.788;10.366;2023-02-25T06:32:17;3.08;;;1.92;;
44476;SDS011;30180;44.788;10.366;2023-02-25T06:34:46;3.70;;;2.40;;
44476;SDS011;30180;44.788;10.366;2023-02-25T06:37:15;4.13;;;2.15;;
44476;SDS011;30180;44.788;10.366;2023-02-25T06:39:43;5.32;;;2.40;;
44476;SDS011;30180;44.788;10.366;2023-02-25T06:42:12;3.88;;;2.47;;
44476;SDS011;30180;44.788;10.366;2023-02-25T06:44:40;4.20;;;2.47;;
44476;SDS011;30180;44.788;10.366;2023-02-25T06:47:08;4.25;;;2.17;;
44476;SDS011;30180;44.788;10.366;2023-02-25T06:49:36;3.80;;;2.30;;
44476;SDS011;30180;44.788;10.366;2023-02-25T06:52:05;3.08;;;2.13;;
44476;SDS011;30180;44.788;10.366;2023-02-25T06:54:35;4.45;;;2.70;;
44476;SDS011;30180;44.788;10.366;2023-02-25T06:57:03;4.65;;;2.30;;
44476;SDS011;30180;44.788;10.366;2023-02-25T06:59:31;4.25;;;2.50;;
44476;SDS011;30180;44.788;10.366;2023-02-25T07:02:01;5.10;;;2.58;;
44476;SDS011;30180;44.788;10.366;2023-02-25T07:04:29;3.33;;;2.08;;
44476;SDS011;30180;44.788;10.366;2023-02-25T07:06:58;4.03;;;2.42;;
44476;SDS011;30180;44.788;10.366;2023-02-25T07:09:26;3.47;;;2.25;;
44476;SDS011;30180;44.788;10.366;2023-02-25T07:11:55;4.40;;;2.35;;
44476;SDS011;30180;44.788;10.366;2023-02-25T07:14:24;4.47;;;2.53;;
44476;SDS011;30180;44.788;10.366;2023-02-25T07:16:52;3.90;;;2.13;;
44476;SDS011;30180;44.788;10.366;2023-02-25T07:19:21;3.63;;;2.20;;
44476;SDS011;30180;44.788;10.366;2023-02-25T07:21:49;4.20;;;2.83;;
44476;SDS011;30180;44.788;10.366;2023-02-25T07:24:17;4.28;;;2.25;;
44476;SDS011;30180;44.788;10.366;2023-02-25T07:26:45;4.95;;;2.40;;
44476;SDS011;30180;44.788;10.366;2023-02-25T07:29:15;5.10;;;2.83;;
44476;SDS011;30180;44.788;10.366;2023-02-25T07:31:43;5.75;;;2.63;;
44476;SDS011;30180;44.788;10.366;2023-02-25T07:34:12;4.97;;;2.38;;
44476;SDS011;30180;44.788;10.366;2023-02-25T07:36:40;4.68;;;2.50;;
44476;SDS011;30180;44.788;10.366;2023-02-25T07:39:09;3.45;;;2.20;;
44476;SDS011;30180;44.788;10.366;2023-02-25T07:41:38;4.53;;;2.53;;
44476;SDS011;30180;44.788;10.366;2023-02-25T07:44:07;4.63;;;2.65;;
44476;SDS011;30180;44.788;10.366;2023-02-25T07:46:37;3.75;;;2.05;;
44476;SDS011;30180;44.788;10.366;2023-02-25T07:49:06;4.03;;;2.63;;
44476;SDS011;30180;44.788;10.366;2023-02-25T07:51:34;4.82;;;2.75;;
44476;SDS011;30180;44.788;10.366;2023-02-25T07:54:02;5.32;;;2.65;;
44476;SDS011;30180;44.788;10.366;2023-02-25T07:56:31;4.28;;;2.35;;
44476;SDS011;30180;44.788;10.366;2023-02-25T07:58:59;3.83;;;2.42;;
44476;SDS011;30180;44.788;10.366;2023-02-25T08:01:28;5.10;;;2.72;;
44476;SDS011;30180;44.788;10.366;2023-02-25T08:04:01;4.30;;;2.58;;
44476;SDS011;30180;44.788;10.366;2023-02-25T08:06:31;4.60;;;2.63;;
44476;SDS011;30180;44.788;10.366;2023-02-25T08:09:02;4.95;;;2.38;;
44476;SDS011;30180;44.788;10.366;2023-02-25T08:11:32;4.28;;;2.70;;
44476;SDS011;30180;44.788;10.366;2023-02-25T08:14:00;4.93;;;3.03;;
44476;SDS011;30180;44.788;10.366;2023-02-25T08:16:28;5.70;;;2.70;;
44476;SDS011;30180;44.788;10.366;2023-02-25T08:18:57;4.78;;;2.70;;
44476;SDS011;30180;44.788;10.366;2023-02-25T08:21:30;4.13;;;2.40;;
44476;SDS011;30180;44.788;10.366;2023-02-25T08:23:58;4.28;;;2.45;;
44476;SDS011;30180;44.788;10.366;2023-02-25T08:26:27;4.78;;;2.63;;
44476;SDS011;30180;44.788;10.366;2023-02-25T08:28:55;4.28;;;2.67;;
44476;SDS011;30180;44.788;10.366;2023-02-25T08:31:24;4.72;;;2.60;;
44476;SDS011;30180;44.788;10.366;2023-02-25T08:33:53;4.28;;;2.60;;
44476;SDS011;30180;44.788;10.366;2023-02-25T08:36:24;4.30;;;2.83;;
44476;SDS011;30180;44.788;10.366;2023-02-25T08:38:54;5.38;;;3.13;;
44476;SDS011;30180;44.788;10.366;2023-02-25T08:41:25;5.90;;;2.90;;
44476;SDS011;30180;44.788;10.366;2023-02-25T08:43:54;4.55;;;2.45;;
44476;SDS011;30180;44.788;10.366;2023-02-25T08:46:26;4.18;;;2.40;;
44476;SDS011;30180;44.788;10.366;2023-02-25T08:48:56;4.78;;;2.90;;
44476;SDS011;30180;44.788;10.366;2023-02-25T08:51:26;5.18;;;2.40;;
44476;SDS011;30180;44.788;10.366;2023-02-25T08:54:00;5.47;;;2.88;;
44476;SDS011;30180;44.788;10.366;2023-02-25T08:56:29;4.30;;;2.75;;
44476;SDS011;30180;44.788;10.366;2023-02-25T08:58:58;4.38;;;2.58;;
44476;SDS011;30180;44.788;10.366;2023-02-25T09:01:27;4.32;;;2.65;;
44476;SDS011;30180;44.788;10.366;2023-02-25T09:04:10;4.18;;;2.55;;
44476;SDS011;30180;44.788;10.366;2023-02-25T09:06:40;5.18;;;2.90;;
44476;SDS011;30180;44.788;10.366;2023-02-25T09:09:08;5.00;;;2.83;;
44476;SDS011;30180;44.788;10.366;2023-02-25T09:11:38;4.38;;;2.60;;
44476;SDS011;30180;44.788;10.366;2023-02-25T09:14:07;4.75;;;2.70;;
44476;SDS011;30180;44.788;10.366;2023-02-25T09:16:36;4.75;;;2.67;;
44476;SDS011;30180;44.788;10.366;2023-02-25T09:19:04;4.47;;;2.80;;
44476;SDS011;30180;44.788;10.366;2023-02-25T09:21:33;4.60;;;2.78;;
44476;SDS011;30180;44.788;10.366;2023-02-25T09:24:04;4.53;;;2.42;;
44476;SDS011;30180;44.788;10.366;2023-02-25T09:26:33;4.50;;;2.67;;
44476;SDS011;30180;44.788;10.366;2023-02-25T09:29:02;4.32;;;2.60;;
44476;SDS011;30180;44.788;10.366;2023-02-25T09:31:32;5.37;;;2.63;;
44476;SDS011;30180;44.788;10.366;2023-02-25T09:34:03;4.40;;;2.73;;
44476;SDS011;30180;44.788;10.366;2023-02-25T09:36:33;3.47;;;2.35;;
44476;SDS011;30180;44.788;10.366;2023-02-25T09:39:03;3.90;;;2.47;;
44476;SDS011;30180;44.788;10.366;2023-02-25T09:41:38;4.38;;;2.70;;
44476;SDS011;30180;44.788;10.366;2023-02-25T09:44:11;4.50;;;2.63;;
44476;SDS011;30180;44.788;10.366;2023-02-25T09:46:44;4.95;;;2.55;;
44476;SDS011;30180;44.788;10.366;2023-02-25T09:49:17;4.15;;;2.63;;
44476;SDS011;30180;44.788;10.366;2023-02-25T09:51:53;4.15;;;2.33;;
44476;SDS011;30180;44.788;10.366;2023-02-25T09:54:29;4.25;;;2.50;;
44476;SDS011;30180;44.788;10.366;2023-02-25T09:57:01;5.68;;;2.58;;
44476;SDS011;30180;44.788;10.366;2023-02-25T09:59:30;4.72;;;2.50;;
44476;SDS011;30180;44.788;10.366;2023-02-25T10:02:01;4.25;;;2.35;;
44476;SDS011;30180;44.788;10.366;2023-02-25T10:04:50;4.18;;;2.60;;
44476;SDS011;30180;44.788;10.366;2023-02-25T10:07:31;4.55;;;2.45;;
44476;SDS011;30180;44.788;10.366;2023-02-25T10:10:04;4.78;;;2.47;;
44476;SDS011;30180;44.788;10.366;2023-02-25T10:12:40;4.85;;;2.60;;
44476;SDS011;30180;44.788;10.366;2023-02-25T10:15:23;4.07;;;2.33;;
44476;SDS011;30180;44.788;10.366;2023-02-25T10:20:42;3.83;;;2.22;;
44476;SDS011;30180;44.788;10.366;2023-02-25T10:23:26;4.43;;;2.50;;
44476;SDS011;30180;44.788;10.366;2023-02-25T10:26:05;4.28;;;2.65;;
44476;SDS011;30180;44.788;10.366;2023-02-25T10:28:43;3.55;;;2.35;;
44476;SDS011;30180;44.788;10.366;2023-02-25T10:31:14;4.25;;;2.38;;
44476;SDS011;30180;44.788;10.366;2023-02-25T10:33:45;4.97;;;2.47;;
44476;SDS011;30180;44.788;10.366;2023-02-25T10:36:16;5.10;;;2.30;;
44476;SDS011;30180;44.788;10.366;2023-02-25T10:38:46;4.53;;;2.83;;
44476;SDS011;30180;44.788;10.366;2023-02-25T10:41:18;4.35;;;2.53;;
44476;SDS011;30180;44.788;10.366;2023-02-25T10:43:48;4.10;;;2.40;;
44476;SDS011;30180;44.788;10.366;2023-02-25T10:46:18;4.38;;;2.35;;
44476;SDS011;30180;44.788;10.366;2023-02-25T10:48:54;3.45;;;1.90;;
44476;SDS011;30180;44.788;10.366;2023-02-25T10:51:24;3.92;;;2.45;;
44476;SDS011;30180;44.788;10.366;2023-02-25T10:54:00;5.07;;;2.50;;
44476;SDS011;30180;44.788;10.366;2023-02-25T10:56:32;5.00;;;2.58;;
44476;SDS011;30180;44.788;10.366;2023-02-25T10:59:07;3.95;;;2.35;;
44476;SDS011;30180;44.788;10.366;2023-02-25T11:01:55;3.75;;;2.40;;
44476;SDS011;30180;44.788;10.366;2023-02-25T11:04:27;3.70;;;2.25;;
44476;SDS011;30180;44.788;10.366;2023-02-25T11:06:58;4.50;;;2.55;;
44476;SDS011;30180;44.788;10.366;2023-02-25T11:09:28;3.88;;;2.40;;
44476;SDS011;30180;44.788;10.366;2023-02-25T11:12:08;4.85;;;2.38;;
44476;SDS011;30180;44.788;10.366;2023-02-25T11:14:38;3.65;;;2.17;;
44476;SDS011;30180;44.788;10.366;2023-02-25T11:17:10;3.45;;;2.00;;
44476;SDS011;30180;44.788;10.366;2023-02-25T11:19:41;4.38;;;2.22;;
44476;SDS011;30180;44.788;10.366;2023-02-25T11:22:15;4.20;;;2.25;;
44476;SDS011;30180;44.788;10.366;2023-02-25T11:24:44;3.88;;;2.30;;
44476;SDS011;30180;44.788;10.366;2023-02-25T11:27:31;3.92;;;2.17;;
44476;SDS011;30180;44.788;10.366;2023-02-25T11:30:05;3.58;;;2.17;;
44476;SDS011;30180;44.788;10.366;2023-02-25T11:32:35;4.03;;;2.17;;
44476;SDS011;30180;44.788;10.366;2023-02-25T11:35:14;5.00;;;2.58;;
44476;SDS011;30180;44.788;10.366;2023-02-25T11:37:45;3.75;;;2.20;;
44476;SDS011;30180;44.788;10.366;2023-02-25T11:40:22;3.95;;;2.25;;
44476;SDS011;30180;44.788;10.366;2023-02-25T11:43:07;4.15;;;1.98;;
44476;SDS011;30180;44.788;10.366;2023-02-25T11:45:48;3.80;;;2.20;;
44476;SDS011;30180;44.788;10.366;2023-02-25T11:48:23;4.57;;;2.30;;
44476;SDS011;30180;44.788;10.366;2023-02-25T11:50:55;3.50;;;2.20;;
44476;SDS011;30180;44.788;10.366;2023-02-25T11:53:36;3.85;;;2.47;;
44476;SDS011;30180;44.788;10.366;2023-02-25T11:56:14;4.65;;;2.22;;
44476;SDS011;30180;44.788;10.366;2023-02-25T11:58:56;3.97;;;2.42;;
44476;SDS011;30180;44.788;10.366;2023-02-25T12:01:41;4.88;;;2.47;;
44476;SDS011;30180;44.788;10.366;2023-02-25T12:04:25;3.63;;;2.20;;
44476;SDS011;30180;44.788;10.366;2023-02-25T12:07:18;4.32;;;2.40;;
44476;SDS011;30180;44.788;10.366;2023-02-25T12:10:13;3.67;;;2.00;;
44476;SDS011;30180;44.788;10.366;2023-02-25T12:13:19;5.22;;;2.15;;
44476;SDS011;30180;44.788;10.366;2023-02-25T12:16:12;3.17;;;2.08;;
44476;SDS011;30180;44.788;10.366;2023-02-25T12:25:29;4.28;;;2.22;;
44476;SDS011;30180;44.788;10.366;2023-02-25T12:28:11;3.72;;;2.17;;
44476;SDS011;30180;44.788;10.366;2023-02-25T12:31:05;3.75;;;2.17;;
44476;SDS011;30180;44.788;10.366;2023-02-25T12:33:58;3.65;;;2.35;;
44476;SDS011;30180;44.788;10.366;2023-02-25T12:36:43;4.40;;;2.13;;
44476;SDS011;30180;44.788;10.366;2023-02-25T12:39:26;3.42;;;1.98;;
44476;SDS011;30180;44.788;10.366;2023-02-25T12:42:12;4.90;;;2.60;;
44476;SDS011;30180;44.788;10.366;2023-02-25T12:45:25;4.05;;;2.30;;
44476;SDS011;30180;44.788;10.366;2023-02-25T12:48:21;3.65;;;2.28;;
44476;SDS011;30180;44.788;10.366;2023-02-25T12:51:27;3.17;;;2.00;;
44476;SDS011;30180;44.788;10.366;2023-02-25T12:54:22;5.60;;;2.47;;
44476;SDS011;30180;44.788;10.366;2023-02-25T12:57:26;4.22;;;2.30;;
44476;SDS011;30180;44.788;10.366;2023-02-25T13:03:06;3.90;;;2.30;;
44476;SDS011;30180;44.788;10.366;2023-02-25T13:05:57;4.00;;;2.13;;
44476;SDS011;30180;44.788;10.366;2023-02-25T13:08:36;4.22;;;2.50;;
44476;SDS011;30180;44.788;10.366;2023-02-25T13:11:22;3.38;;;2.22;;
44476;SDS011;30180;44.788;10.366;2023-02-25T13:14:16;3.92;;;2.10;;
44476;SDS011;30180;44.788;10.366;2023-02-25T13:16:59;4.32;;;2.53;;
44476;SDS011;30180;44.788;10.366;2023-02-25T13:19:47;3.65;;;2.20;;
44476;SDS011;30180;44.788;10.366;2023-02-25T13:22:35;6.43;;;2.35;;
44476;SDS011;30180;44.788;10.366;2023-02-25T13:25:16;3.45;;;2.20;;
44476;SDS011;30180;44.788;10.366;2023-02-25T13:28:07;3.35;;;1.80;;
44476;SDS011;30180;44.788;10.366;2023-02-25T13:30:49;3.63;;;2.13;;
44476;SDS011;30180;44.788;10.366;2023-02-25T13:33:27;7.43;;;2.10;;
44476;SDS011;30180;44.788;10.366;2023-02-25T13:36:25;4.70;;;2.38;;
44476;SDS011;30180;44.788;10.366;2023-02-25T13:39:21;5.20;;;2.20;;
44476;SDS011;30180;44.788;10.366;2023-02-25T13:42:16;5.03;;;2.28;;
44476;SDS011;30180;44.788;10.366;2023-02-25T13:45:09;4.23;;;2.30;;
44476;SDS011;30180;44.788;10.366;2023-02-25T13:47:59;3.97;;;2.33;;
44476;SDS011;30180;44.788;10.366;2023-02-25T13:53:41;4.18;;;2.13;;
44476;SDS011;30180;44.788;10.366;2023-02-25T13:56:36;3.00;;;2.17;;
44476;SDS011;30180;44.788;10.366;2023-02-25T13:59:29;3.33;;;2.20;;
44476;SDS011;30180;44.788;10.366;2023-02-25T14:02:16;3.38;;;1.98;;
44476;SDS011;30180;44.788;10.366;2023-02-25T14:05:02;3.78;;;2.17;;
44476;SDS011;30180;44.788;10.366;2023-02-25T14:10:42;3.42;;;2.05;;
44476;SDS011;30180;44.788;10.366;2023-02-25T14:13:26;5.10;;;2.28;;
44476;SDS011;30180;44.788;10.366;2023-02-25T14:16:11;3.63;;;2.30;;
44476;SDS011;30180;44.788;10.366;2023-02-25T14:18:55;3.88;;;2.35;;
44476;SDS011;30180;44.788;10.366;2023-02-25T14:24:39;3.47;;;2.25;;
44476;SDS011;30180;44.788;10.366;2023-02-25T14:27:14;3.28;;;2.10;;
44476;SDS011;30180;44.788;10.366;2023-02-25T14:29:58;4.53;;;2.08;;
44476;SDS011;30180;44.788;10.366;2023-02-25T14:32:42;4.57;;;2.17;;
44476;SDS011;30180;44.788;10.366;2023-02-25T14:35:34;4.28;;;2.25;;
44476;SDS011;30180;44.788;10.366;2023-02-25T14:38:22;4.22;;;2.22;;
44476;SDS011;30180;44.788;10.366;2023-02-25T14:41:00;4.05;;;2.20;;
44476;SDS011;30180;44.788;10.366;2023-02-25T14:46:11;3.75;;;2.15;;
44476;SDS011;30180;44.788;10.366;2023-02-25T14:48:49;3.60;;;2.35;;
44476;SDS011;30180;44.788;10.366;2023-02-25T15:00:58;4.38;;;2.40;;
44476;SDS011;30180;44.788;10.366;2023-02-25T15:06:47;7.10;;;4.00;;
44476;SDS011;30180;44.788;10.366;2023-02-25T15:09:31;10.65;;;4.60;;
44476;SDS011;30180;44.788;10.366;2023-02-25T15:12:17;12.77;;;6.00;;
44476;SDS011;30180;44.788;10.366;2023-02-25T15:24:08;20.40;;;10.80;;
44476;SDS011;30180;44.788;10.366;2023-02-25T15:26:38;24.85;;;11.05;;
44476;SDS011;30180;44.788;10.366;2023-02-25T15:29:20;24.05;;;11.27;;
44476;SDS011;30180;44.788;10.366;2023-02-25T15:32:23;22.55;;;10.85;;
44476;SDS011;30180;44.788;10.366;2023-02-25T15:34:56;17.50;;;9.70;;
44476;SDS011;30180;44.788;10.366;2023-02-25T15:37:28;24.02;;;10.65;;
44476;SDS011;30180;44.788;10.366;2023-02-25T15:42:59;19.23;;;8.98;;
44476;SDS011;30180;44.788;10.366;2023-02-25T15:45:38;17.33;;;8.52;;
44476;SDS011;30180;44.788;10.366;2023-02-25T15:51:07;19.75;;;8.50;;
44476;SDS011;30180;44.788;10.366;2023-02-25T15:53:40;13.00;;;8.35;;
44476;SDS011;30180;44.788;10.366;2023-02-25T15:56:47;18.65;;;8.00;;
44476;SDS011;30180;44.788;10.366;2023-02-25T16:05:00;14.55;;;6.60;;
44476;SDS011;30180;44.788;10.366;2023-02-25T16:07:31;18.13;;;8.20;;
44476;SDS011;30180;44.788;10.366;2023-02-25T16:12:34;12.85;;;6.55;;
44476;SDS011;30180;44.788;10.366;2023-02-25T16:15:10;14.10;;;7.13;;
44476;SDS011;30180;44.788;10.366;2023-02-25T16:17:45;17.10;;;7.03;;
44476;SDS011;30180;44.788;10.366;2023-02-25T16:20:15;15.57;;;7.20;;
44476;SDS011;30180;44.788;10.366;2023-02-25T16:22:51;13.02;;;6.28;;
44476;SDS011;30180;44.788;10.366;2023-02-25T16:25:26;15.98;;;7.40;;